Nahunta, Georgia
Current Conditions -  °F | °C
As of 11:35 AM on Thursday 23 Oct 2014 (Local Time) from KJES Reporting Station
Clear Clear  
Wind Chill: 66°   Ceiling: Unl
Heat Index: 66°   Visibility: 10mi
Dew Point: 50°   Wind: 3mph
Humidity: 56%   Direction: 350°N
Pressure: 30.11"   Gusts: NA
Location:  31.2°N, 81.98°W
Report Text: KJES 231535Z AUTO 35003KT 10SM CLR 19/10 A3011 RMK AO2
Loading
Personal Weather Stations






























Interactive Weather Map
Tropical Storm Tracking
New forecast layout! Learn more

10-Day Weather Forecast

Advertisements
Track Severe Weather on mobile